Observations for FAIRFORD RAF, United Kingdom (EGVA)

EGVA 231056Z AUTO 22008KT 9999 OVC011 15/14 A3000 RMK AO2 CIG 010 RWY09 SLP163 T01520136 $  
EGVA 231051Z AUTO 22008KT 9999 OVC011 15/14 A2999 RMK AO2 CIG 010 RWY09 SLP159 $
EGVA 230956Z AUTO 22008KT 9999 OVC009 14/13 A2999 RMK AO2 CIG 008 RWY09 SLP159 T01380127 $  
EGVA 230941Z AUTO 20008KT 9999 OVC008 14/13 A2999 RMK AO2 CIG 007 RWY09 SLP159 $
EGVA 230921Z AUTO 20006KT 9999 OVC007 13/12 A2999 RMK AO2 SLP160 $
EGVA 230856Z AUTO 20009KT 9999 OVC008 13/12 A3000 RMK AO2 CIG 007 RWY09 SLP163 60001 T01290118 57007 $  
EGVA 230851Z AUTO 21008KT 9999 OVC008 13/12 A3000 RMK AO2 CIG 007 RWY09 SLP163 $
EGVA 230756Z AUTO 21006KT 9999 OVC007 12/11 A3001 RMK AO2 SLP167 T01220111 $
EGVA 230711Z AUTO 21009KT 9999 OVC007 12/11 A3001 RMK AO2 SLP167 $
EGVA 230656Z AUTO 22005KT 9999 OVC008 12/10 A3001 RMK AO2 RAB03E13DZB13E20RAB20E40 SLP167 P0001 T01150102 $ 
EGVA 230628Z AUTO 21005KT 9999 -RA BKN009 BKN021 OVC065 11/10 A3001 RMK AO2 RAB03E13DZB13E20RAB20 CIG 009V022 BKN009 V SCT SLP167 $
EGVA 230640Z AUTO 22005KT 9999 OVC009 11/10 A3001 RMK AO2 RAB03E13DZB13E20RAB20E40 OVC V BKN CIG 008 RWY09 SLP167 $
EGVA 230613Z AUTO 00000KT 9999 -RA FEW009 SCT021 OVC065 11/10 A3001 RMK AO2 RAB03E13DZB13 SLP167 $
EGVA 230618Z AUTO 20005KT 9999 -DZ SCT009 BKN022 OVC065 11/10 A3001 RMK AO2 RAB03E13DZB13 CIG 021V065 SLP167 $
EGVA 230603Z AUTO 00000KT 9999 -RA FEW009 BKN021 OVC029 11/09 A3002 RMK AO2 RAB03 SLP170 $
EGVA 230556Z AUTO 22004KT 9999 FEW009 BKN021 OVC027 11/09 A3002 RMK AO2 DZB08E22DZB29E32RAB32E43DZB43E47 CIG 021V029 BKN V SCT SLP170 P0000 60000 T01070093 10107 20097 55008 $ 
EGVA 230529Z AUTO 20004KT 9999 -DZ SCT026 BKN033 11/09 A3002 RMK AO2 DZB08E22DZB29 SLP170 $
EGVA 230508Z AUTO 21005KT 9999 -DZ BKN029 BKN038 10/09 A3003 RMK AO2 DZB08 SLP174 $
EGVA 230522Z AUTO 20003KT 9999 BKN033 11/09 A3003 RMK AO2 DZB08E22 SLP174 $
EGVA 230547Z AUTO 21004KT 9999 SCT009 SCT021 OVC029 11/09 A3002 RMK AO2 DZB08E22DZB29E32RAB32E43DZB43E47 SLP170 $
EGVA 230456Z AUTO 21004KT 9999 OVC030 10/09 A3004 RMK AO2 SLP177 T01030087 $
EGVA 230441Z AUTO 23003KT 9999 BKN032 BKN100 BKN130 OVC180 10/09 A3004 RMK AO2 SLP177 $
EGVA 230356Z AUTO 23006KT 9999 BKN060 BKN110 10/09 A3004 RMK AO2 SLP177 T01030089 $ 
EGVA 230326Z AUTO 22006KT 9999 SCT030 SCT060 BKN140 BKN170 10/09 A3003 RMK AO2 SLP173 $
EGVA 230256Z AUTO 23005KT 9999 FEW017 BKN032 10/09 A3005 RMK AO2 SLP180 T01020088 55002 $   
EGVA 230246Z AUTO 23006KT 9999 SCT015 BKN029 OVC034 10/09 A3005 RMK AO2 CIG 015V031 BKN V OVC SLP180 $
EGVA 230156Z AUTO 24007KT 9999 BKN018 BKN024 OVC034 10/09 A3005 RMK AO2 CIG 016V020 CIG 017 RWY09 SLP180 T01020086 $
EGVA 230146Z AUTO 24008KT 9999 BKN016 OVC032 10/09 A3005 RMK AO2 CIG 016V032 SLP180 $
EGVA 230151Z AUTO 24008KT 9999 FEW014 BKN020 OVC032 10/09 A3006 RMK AO2 CIG 016V032 CIG 016 RWY09 SLP183 $
EGVA 230056Z AUTO 23009KT 9999 BKN042 BKN150 10/08 A3005 RMK AO2 SLP180 T00990080 $ 
EGVA 230001Z AUTO 24009KT 9999 SCT047 BKN210 BKN230 10/08 A3005 RMK AO2 SLP180 $
EGVA 230051Z AUTO 22008KT 9999 BKN044 BKN150 10/08 A3005 RMK AO2 SLP180 $
EGVA 222356Z AUTO 25008KT 9999 BKN046 BKN230 10/08 A3005 RMK AO2 SLP180 T00990077 10104 20081 401370081 55002 $ 
EGVA 222341Z AUTO 23004KT 9999 BKN048 10/07 A3006 RMK AO2 SLP183 $
EGVA 222256Z AUTO 20005KT 9999 SCT050 09/06 A3006 RMK AO2 SLP183 T00930064 $
EGVA 222156Z AUTO 26011KT 9999 BKN050 BKN230 10/06 A3005 RMK AO2 SLP180 T01030063 $ 
EGVA 222056Z AUTO 25007KT 9999 OVC050 10/07 A3006 RMK AO2 SLP184 T01040073 52012 $  
EGVA 221956Z AUTO 26010KT 9999 BKN055 10/07 A3005 RMK AO2 SLP180 T01000074 $
EGVA 221856Z AUTO 28005KT 9999 SCT055 08/06 A3004 RMK AO2 SLP178 T00820057 $
EGVA 221656Z AUTO 26009KT 9999 SCT035 SCT055 11/07 A3000 RMK AO2 SLP164 T01070070 $ 
EGVA 221616Z AUTO 27011KT 9999 SCT033 SCT045 BKN060 11/08 A2999 RMK AO2 SLP160 $
EGVA 221556Z AUTO 27012KT 9999 SCT030 BKN037 BKN045 12/08 A2998 RMK AO2 RAE15DZB15E17 SLP157 P0000 T01190080 $  
EGVA 221517Z AUTO 28015KT 9999 SCT030 OVC042 12/08 A2997 RMK AO2 RAE15DZB15E17 SLP153 $
EGVA 221456Z AUTO 28013KT 9999 -RA SCT037 OVC046 13/08 A2996 RMK AO2 RAB44 SLP150 P0000 60000 T01260075 52006 $ 
EGVA 221444Z AUTO 28014KT 9999 -RA BKN035 OVC046 13/07 A2996 RMK AO2 RAB44 SLP150 $
EGVA 221356Z AUTO 28015KT 9999 SCT033 BKN043 OVC050 12/07 A2995 RMK AO2 DZB30E37RAB37E54 SLP146 P0000 T01220065 $   
EGVA 221330Z AUTO 27015KT 9999 -DZ BKN041 OVC048 12/06 A2995 RMK AO2 DZB30 SLP146 $
EGVA 221354Z AUTO 28015KT 9999 BKN036 BKN045 12/07 A2996 RMK AO2 DZB30E37RAB37E54 SLP150 $
EGVA 221256Z AUTO 27015KT 9999 BKN046 BKN060 12/05 A2995 RMK AO2 SLP146 T01180050 $ 
EGVA 221221Z AUTO 29014G18KT 9999 SCT045 BKN060 12/04 A2995 RMK AO2 SLP146 $
EGVA 221156Z AUTO 28013KT 9999 BKN045 OVC055 12/04 A2995 RMK AO2 SLP146 70002 T01210041 10129 20082 52019 $ 
EGVA 221056Z AUTO 28016G21KT 9999 OVC043 12/04 A2992 RMK AO2 SLP136 T01210041 $ 
EGVA 221026Z AUTO 28016KT 9999 BKN048 12/04 A2991 RMK AO2 SLP132 $